Terminal Aerodrome Forecast
Issued by NWS

Home | Current Version | Previous Version | Text Only | Print | Product List | Glossary On
Versions: 1 2 3 4 5 6 7 8 9 10 11 12 13 14 15 16
000
FTUS42 KTAE 220520
TAFECP
TAF
KECP 220520Z 2206/2306 31009KT P6SM BKN015 OVC020
     FM220900 01006KT P6SM OVC015
     FM230000 02008KT 6SM -SHRA OVC015=

USA.gov is the U.S. government's official web portal to all federal, state and local government web resources and services.